Time;durP1;ratioP1;P1;durP2;ratioP2;P2;SDS_P1;SDS_P2;PMS_P1;PMS_P2;Temp;Humidity;BMP_temperature;BMP_pressure;BME280_temperature;BME280_humidity;BME280_pressure;Samples;Min_cycle;Max_cycle;Signal;HPM_P1;HPM_P2
2021/06/03 00:00:48;;;;;;;0.10;0.10;;;16.30;94.00;;;;;;6274046;22;20469;-79
2021/06/03 00:03:15;;;;;;;0.10;0.10;;;16.20;93.80;;;;;;6273884;22;20427;-80
2021/06/03 00:05:53;;;;;;;0.10;0.10;;;16.20;93.80;;;;;;6273147;22;20008;-79
2021/06/03 00:08:20;;;;;;;0.10;0.10;;;16.20;93.80;;;;;;6273808;22;20026;-79
2021/06/03 00:11:08;;;;;;;0.10;0.10;;;16.20;93.50;;;;;;6272606;22;20058;-79
2021/06/03 00:13:36;;;;;;;0.10;0.10;;;16.20;93.40;;;;;;6272720;22;20339;-80
2021/06/03 00:16:07;;;;;;;1.17;1.17;;;16.10;93.20;;;;;;6273772;22;20269;-81
2021/06/03 00:18:33;;;;;;;0.10;0.10;;;16.20;93.50;;;;;;6272906;22;20003;-78
2021/06/03 00:20:59;;;;;;;0.10;0.10;;;16.10;93.50;;;;;;6271941;22;20004;-80
2021/06/03 00:23:25;;;;;;;0.10;0.10;;;16.10;94.00;;;;;;6273087;22;20062;-80
2021/06/03 00:25:51;;;;;;;0.10;0.10;;;16.10;94.10;;;;;;6274052;22;20077;-80
2021/06/03 00:28:16;;;;;;;0.10;0.10;;;16.10;94.00;;;;;;6271270;22;20008;-80
2021/06/03 00:30:43;;;;;;;0.00;0.00;;;16.00;94.30;;;;;;6273498;22;20447;-80
2021/06/03 00:33:08;;;;;;;0.10;0.10;;;16.00;94.30;;;;;;6272915;22;20004;-80
2021/06/03 00:35:34;;;;;;;0.10;0.10;;;16.10;94.80;;;;;;6273681;22;20536;-80
2021/06/03 00:38:00;;;;;;;0.10;0.10;;;16.10;94.60;;;;;;6271742;22;20030;-80
2021/06/03 00:40:26;;;;;;;0.10;0.10;;;16.00;94.60;;;;;;6272031;22;20465;-81
2021/06/03 00:42:51;;;;;;;0.10;0.10;;;16.00;94.30;;;;;;6271079;22;20004;-80
2021/06/03 00:45:26;;;;;;;0.10;0.10;;;16.00;94.20;;;;;;6273884;22;20004;-80
2021/06/03 00:47:52;;;;;;;0.10;0.10;;;16.00;94.50;;;;;;6274817;22;20304;-80
2021/06/03 00:50:26;;;;;;;0.10;0.10;;;16.00;94.40;;;;;;6275450;22;20034;-80
2021/06/03 00:52:53;;;;;;;0.10;0.10;;;16.00;94.50;;;;;;6274761;22;20075;-80
2021/06/03 00:55:19;;;;;;;0.10;0.10;;;16.00;94.10;;;;;;6274238;22;20004;-80
2021/06/03 00:57:44;;;;;;;0.10;0.10;;;16.00;94.40;;;;;;6273007;22;20312;-79
2021/06/03 01:00:13;;;;;;;0.10;0.10;;;16.00;94.20;;;;;;6274916;22;20010;-80
2021/06/03 01:02:39;;;;;;;0.10;0.10;;;16.00;94.30;;;;;;6275411;22;19995;-80
2021/06/03 01:05:18;;;;;;;0.10;0.10;;;16.00;94.30;;;;;;6275048;22;20006;-80
2021/06/03 01:07:43;;;;;;;0.10;0.10;;;15.90;94.00;;;;;;6272930;22;20019;-80
2021/06/03 01:10:23;;;;;;;0.10;0.10;;;15.80;94.30;;;;;;6275052;22;20057;-80
2021/06/03 01:12:59;;;;;;;0.10;0.10;;;15.80;94.40;;;;;;6272987;22;20027;-80
2021/06/03 01:15:27;;;;;;;0.10;0.10;;;15.80;94.20;;;;;;6275097;22;20053;-80
2021/06/03 01:17:54;;;;;;;0.10;0.10;;;15.80;93.90;;;;;;6273943;22;20003;-80
2021/06/03 01:20:21;;;;;;;0.10;0.10;;;15.80;94.20;;;;;;6275294;22;20050;-80
2021/06/03 01:23:05;;;;;;;0.10;0.10;;;15.70;94.30;;;;;;6274596;22;20007;-79
2021/06/03 01:25:31;;;;;;;0.10;0.10;;;15.70;94.20;;;;;;6275168;22;20083;-80
2021/06/03 01:27:57;;;;;;;0.10;0.10;;;15.70;94.30;;;;;;6272982;22;19996;-80
2021/06/03 01:30:35;;;;;;;0.10;0.10;;;15.70;93.90;;;;;;6273301;22;20022;-79
2021/06/03 01:33:05;;;;;;;0.10;0.10;;;15.70;94.00;;;;;;6272658;22;20000;-80
2021/06/03 01:35:35;;;;;;;0.10;0.10;;;15.70;93.80;;;;;;6273628;22;20385;-80
2021/06/03 01:38:04;;;;;;;0.10;0.10;;;15.70;93.90;;;;;;6273804;22;20196;-81
2021/06/03 01:40:33;;;;;;;0.10;0.10;;;15.70;93.70;;;;;;6275143;22;19995;-80
2021/06/03 01:42:59;;;;;;;0.10;0.10;;;15.60;93.80;;;;;;6273894;22;20377;-80
2021/06/03 01:45:26;;;;;;;0.10;0.10;;;15.60;93.40;;;;;;6273104;22;20011;-81
2021/06/03 01:47:52;;;;;;;;;;;15.60;93.60;;;;;;6272765;22;20031;-81
2021/06/03 01:50:19;;;;;;;0.10;0.10;;;15.60;93.50;;;;;;6274332;22;19918;-81
2021/06/03 01:52:46;;;;;;;0.10;0.10;;;15.60;93.30;;;;;;6274878;22;20053;-80
2021/06/03 01:55:15;;;;;;;0.10;0.10;;;15.50;93.10;;;;;;6274884;22;20049;-80
2021/06/03 01:57:42;;;;;;;0.10;0.10;;;15.60;93.40;;;;;;6272456;22;20008;-80
2021/06/03 02:00:11;;;;;;;0.10;0.10;;;15.50;93.10;;;;;;6273299;22;20015;-80
2021/06/03 02:02:37;;;;;;;0.10;0.10;;;15.50;93.10;;;;;;6272495;22;19996;-81
2021/06/03 02:05:04;;;;;;;0.10;0.10;;;15.60;93.00;;;;;;6273078;22;20018;-79
2021/06/03 02:07:30;;;;;;;0.10;0.10;;;15.50;93.00;;;;;;6272434;22;20004;-80
2021/06/03 02:09:56;;;;;;;0.10;0.10;;;15.50;92.70;;;;;;6274794;22;20525;-80
2021/06/03 02:12:23;;;;;;;0.10;0.10;;;15.50;92.00;;;;;;6274029;22;20024;-80
2021/06/03 02:14:50;;;;;;;;;;;15.50;92.70;;;;;;6273242;22;20423;-80
2021/06/03 02:17:28;;;;;;;0.10;0.10;;;15.50;92.30;;;;;;6274050;22;19899;-80
2021/06/03 02:19:56;;;;;;;0.10;0.10;;;15.50;92.40;;;;;;6274495;22;20003;-80
2021/06/03 02:22:23;;;;;;;0.10;0.10;;;15.50;92.70;;;;;;6273775;22;19999;-80
2021/06/03 02:24:50;;;;;;;0.10;0.10;;;15.50;92.50;;;;;;6274454;22;20065;-80
2021/06/03 02:27:20;;;;;;;0.10;0.10;;;15.40;92.00;;;;;;6272036;22;20007;-81
2021/06/03 02:29:48;;;;;;;0.10;0.10;;;15.40;91.80;;;;;;6272661;22;20019;-80
2021/06/03 02:32:15;;;;;;;0.10;0.10;;;15.40;91.80;;;;;;6273828;22;20463;-80
2021/06/03 02:34:42;;;;;;;0.10;0.10;;;15.40;92.20;;;;;;6274525;22;19996;-80
2021/06/03 02:37:13;;;;;;;0.10;0.10;;;15.40;92.20;;;;;;6273945;22;20020;-80
2021/06/03 02:39:40;;;;;;;0.10;0.10;;;15.40;92.00;;;;;;6274240;22;20019;-80
2021/06/03 02:42:07;;;;;;;0.10;0.10;;;15.30;91.80;;;;;;6271603;22;20371;-80
2021/06/03 02:44:42;;;;;;;0.10;0.10;;;15.40;92.00;;;;;;6272539;22;20043;-80
2021/06/03 02:47:09;;;;;;;0.88;0.88;;;15.40;92.20;;;;;;6273948;22;19995;-80
2021/06/03 02:49:35;;;;;;;0.10;0.10;;;15.30;91.90;;;;;;6274189;22;20003;-80
2021/06/03 02:52:06;;;;;;;0.10;0.10;;;15.40;91.70;;;;;;6274021;22;20008;-81
2021/06/03 02:54:32;;;;;;;0.10;0.10;;;15.40;91.80;;;;;;6274022;22;20385;-80
2021/06/03 02:56:58;;;;;;;0.10;0.10;;;15.40;91.60;;;;;;6272139;22;20008;-80
2021/06/03 02:59:24;;;;;;;0.10;0.10;;;15.40;91.40;;;;;;6272571;22;20008;-81
2021/06/03 03:01:50;;;;;;;0.10;0.10;;;15.30;91.20;;;;;;6273242;22;19996;-81
2021/06/03 03:04:15;;;;;;;0.10;0.10;;;15.40;91.10;;;;;;6274050;22;20031;-81
2021/06/03 03:06:41;;;;;;;0.10;0.10;;;15.30;91.20;;;;;;6273726;22;20018;-80
2021/06/03 03:09:07;;;;;;;0.10;0.10;;;15.30;91.30;;;;;;6273712;22;20331;-80
2021/06/03 03:11:33;;;;;;;0.10;0.10;;;15.30;90.90;;;;;;6273749;22;20485;-80
2021/06/03 03:13:59;;;;;;;0.10;0.10;;;15.30;91.30;;;;;;6273338;22;19996;-81
2021/06/03 03:16:25;;;;;;;0.10;0.10;;;15.30;90.90;;;;;;6274283;22;20000;-81
2021/06/03 03:18:51;;;;;;;0.10;0.10;;;15.30;91.30;;;;;;6273589;22;20554;-81
2021/06/03 03:21:17;;;;;;;0.10;0.10;;;15.40;91.40;;;;;;6272607;22;20438;-81
2021/06/03 03:23:42;;;;;;;0.10;0.10;;;15.30;91.30;;;;;;6273512;22;19999;-80
2021/06/03 03:26:08;;;;;;;0.10;0.10;;;15.30;91.60;;;;;;6274437;22;20003;-81
2021/06/03 03:28:34;;;;;;;0.10;0.10;;;15.30;91.50;;;;;;6271588;22;20511;-81
2021/06/03 03:31:01;;;;;;;0.10;0.10;;;15.30;91.40;;;;;;6273969;22;20368;-81
2021/06/03 03:33:27;;;;;;;0.10;0.10;;;15.30;91.20;;;;;;6273318;22;20006;-81
2021/06/03 03:35:53;;;;;;;0.08;0.08;;;15.40;91.10;;;;;;6273624;22;20003;-81
2021/06/03 03:38:21;;;;;;;0.10;0.10;;;15.40;91.00;;;;;;6273575;22;19998;-81
2021/06/03 03:40:47;;;;;;;0.10;0.10;;;15.40;90.90;;;;;;6273991;22;20003;-81
2021/06/03 03:43:13;;;;;;;0.20;0.20;;;15.40;91.00;;;;;;6273500;22;20008;-81
2021/06/03 03:45:39;;;;;;;0.10;0.10;;;15.40;91.10;;;;;;6272174;22;20308;-81
2021/06/03 03:48:05;;;;;;;0.10;0.10;;;15.50;91.00;;;;;;6271578;22;20004;-81
2021/06/03 03:50:33;;;;;;;0.10;0.10;;;15.50;90.70;;;;;;6272464;22;20003;-81
2021/06/03 03:52:59;;;;;;;0.10;0.10;;;15.60;90.70;;;;;;6271579;22;20519;-81
2021/06/03 03:55:25;;;;;;;0.10;0.10;;;15.60;90.70;;;;;;6273996;22;20003;-80
2021/06/03 03:57:51;;;;;;;0.10;0.10;;;15.60;90.60;;;;;;6273079;22;20000;-81
2021/06/03 04:00:20;;;;;;;0.10;0.10;;;15.60;90.40;;;;;;6273894;22;20004;-81
2021/06/03 04:02:46;;;;;;;0.10;0.10;;;15.70;90.40;;;;;;6273500;22;20331;-80
2021/06/03 04:05:12;;;;;;;0.10;0.10;;;15.70;90.60;;;;;;6273972;22;20540;-81
2021/06/03 04:07:39;;;;;;;0.10;0.10;;;15.70;90.70;;;;;;6271614;22;20029;-81
2021/06/03 04:10:17;;;;;;;0.10;0.10;;;15.70;90.50;;;;;;6273983;22;20312;-81
2021/06/03 04:12:43;;;;;;;;;;;15.70;90.70;;;;;;6272324;22;20004;-81
2021/06/03 04:15:10;;;;;;;0.10;0.10;;;15.70;90.80;;;;;;6273192;22;19906;-82
2021/06/03 04:17:36;;;;;;;0.10;0.10;;;15.80;90.70;;;;;;6272979;22;20330;-81
2021/06/03 04:20:04;;;;;;;0.17;0.17;;;15.80;90.50;;;;;;6273762;22;20007;-81
2021/06/03 04:22:31;;;;;;;0.10;0.10;;;15.80;90.30;;;;;;6273487;22;20038;-81
2021/06/03 04:24:57;;;;;;;0.10;0.10;;;15.80;90.40;;;;;;6275420;22;20073;-81
2021/06/03 04:27:41;;;;;;;0.10;0.10;;;15.80;90.10;;;;;;6274017;22;20004;-82
2021/06/03 04:30:10;;;;;;;0.10;0.10;;;15.90;89.60;;;;;;6275172;22;20041;-81
2021/06/03 04:32:36;;;;;;;0.10;0.10;;;15.90;90.10;;;;;;6274702;22;20011;-81
2021/06/03 04:35:03;;;;;;;0.10;0.10;;;16.00;90.20;;;;;;6274193;22;20423;-81
2021/06/03 04:37:29;;;;;;;0.10;0.10;;;16.00;90.10;;;;;;6273921;22;20434;-84
2021/06/03 04:39:54;;;;;;;0.10;0.10;;;16.00;90.50;;;;;;6275793;22;20002;-84
2021/06/03 04:42:20;;;;;;;0.10;0.10;;;16.10;90.00;;;;;;6273166;22;20043;-83
2021/06/03 04:44:46;;;;;;;0.10;0.10;;;16.20;90.60;;;;;;6275977;22;20003;-83
2021/06/03 04:47:12;;;;;;;0.10;0.10;;;16.20;90.00;;;;;;6272660;22;20134;-83
2021/06/03 04:49:38;;;;;;;0.10;0.10;;;16.20;90.70;;;;;;6275055;22;20031;-83
2021/06/03 04:52:46;;;;;;;1.23;1.17;;;16.30;90.60;;;;;;6273524;22;20805;-81
2021/06/03 04:55:15;;;;;;;0.75;0.75;;;16.30;90.20;;;;;;6263055;22;20484;-82
2021/06/03 04:57:42;;;;;;;;;;;16.40;90.90;;;;;;6273629;22;20366;-81
2021/06/03 05:00:13;;;;;;;0.10;0.10;;;16.50;90.40;;;;;;6273552;22;20242;-83
2021/06/03 05:02:38;;;;;;;0.10;0.10;;;16.50;90.10;;;;;;6274629;22;19996;-83
2021/06/03 05:05:06;;;;;;;0.10;0.10;;;16.60;90.20;;;;;;6275196;22;20082;-83
2021/06/03 05:07:32;;;;;;;0.10;0.10;;;16.60;90.10;;;;;;6275045;22;20035;-81
2021/06/03 05:09:57;;;;;;;0.10;0.10;;;16.60;89.50;;;;;;6275044;22;20003;-81
2021/06/03 05:12:23;;;;;;;0.10;0.10;;;16.70;90.50;;;;;;6274398;22;20004;-82
2021/06/03 05:14:48;;;;;;;0.10;0.10;;;16.70;90.00;;;;;;6275132;22;20007;-81
2021/06/03 05:17:14;;;;;;;0.10;0.10;;;16.80;90.00;;;;;;6275205;22;20074;-82
2021/06/03 05:19:40;;;;;;;0.10;0.10;;;16.80;89.50;;;;;;6275129;22;19992;-84
2021/06/03 05:22:06;;;;;;;0.20;0.20;;;16.90;89.70;;;;;;6273068;22;20035;-84
2021/06/03 05:24:32;;;;;;;0.10;0.10;;;17.00;89.80;;;;;;6274203;22;20207;-83
2021/06/03 05:26:58;;;;;;;0.10;0.10;;;17.00;89.80;;;;;;6273269;22;20007;-84
2021/06/03 05:29:25;;;;;;;0.10;0.10;;;17.00;89.50;;;;;;6274921;22;20106;-84
2021/06/03 05:31:52;;;;;;;0.10;0.10;;;17.10;90.10;;;;;;6275394;22;20043;-85
2021/06/03 05:34:19;;;;;;;0.10;0.10;;;17.20;89.30;;;;;;6274604;22;20383;-82
2021/06/03 05:36:45;;;;;;;0.10;0.10;;;17.20;88.70;;;;;;6274919;22;20310;-79
2021/06/03 05:39:11;;;;;;;0.10;0.10;;;17.20;89.40;;;;;;6272889;22;20003;-81
2021/06/03 05:41:38;;;;;;;0.10;0.10;;;17.30;89.30;;;;;;6273733;22;20004;-80
2021/06/03 05:44:06;;;;;;;0.85;0.85;;;17.30;89.50;;;;;;6273502;22;20567;-81
2021/06/03 05:46:33;;;;;;;0.10;0.10;;;17.40;91.80;;;;;;6275511;22;20326;-83
2021/06/03 05:49:01;;;;;;;0.10;0.10;;;17.50;91.40;;;;;;6273451;22;20320;-82
2021/06/03 05:51:28;;;;;;;0.10;0.10;;;17.60;90.80;;;;;;6271630;22;20022;-81
2021/06/03 05:53:54;;;;;;;0.10;0.10;;;17.60;90.80;;;;;;6274374;22;20000;-82
2021/06/03 05:56:20;;;;;;;0.10;0.10;;;17.70;90.50;;;;;;6275085;22;20402;-83
2021/06/03 05:58:46;;;;;;;0.10;0.10;;;17.80;91.00;;;;;;6274482;22;20449;-82
2021/06/03 06:01:11;;;;;;;0.10;0.10;;;17.90;90.00;;;;;;6274908;22;20000;-82
2021/06/03 06:03:42;;;;;;;0.10;0.10;;;17.90;89.80;;;;;;6274417;22;20000;-80
2021/06/03 06:08:33;;;;;;;0.10;0.10;;;18.10;90.10;;;;;;6274375;22;19999;-81
2021/06/03 06:10:59;;;;;;;0.10;0.10;;;18.20;90.40;;;;;;6274367;22;20486;-82
2021/06/03 06:13:24;;;;;;;0.10;0.10;;;18.20;90.30;;;;;;6274136;22;19999;-82
2021/06/03 06:15:50;;;;;;;0.10;0.10;;;18.30;88.50;;;;;;6274388;22;20031;-82
2021/06/03 06:18:16;;;;;;;0.05;0.05;;;18.40;91.30;;;;;;6274416;22;19995;-83
2021/06/03 06:20:42;;;;;;;0.63;0.63;;;18.50;90.30;;;;;;6275197;22;20018;-83
2021/06/03 06:23:08;;;;;;;0.10;0.10;;;18.60;90.90;;;;;;6274028;22;20034;-83
2021/06/03 06:25:34;;;;;;;0.10;0.10;;;18.60;90.50;;;;;;6274731;22;20022;-83
2021/06/03 06:28:00;;;;;;;0.10;0.10;;;18.80;90.20;;;;;;6274014;22;20003;-83
2021/06/03 06:30:27;;;;;;;0.10;0.10;;;18.90;90.10;;;;;;6274365;22;20027;-82
2021/06/03 06:32:53;;;;;;;0.10;0.10;;;19.00;90.00;;;;;;6271952;22;20004;-82
2021/06/03 06:35:19;;;;;;;0.00;0.00;;;19.10;88.60;;;;;;6274711;22;20003;-83
2021/06/03 06:37:45;;;;;;;0.30;0.30;;;19.10;88.10;;;;;;6273827;22;20074;-83
2021/06/03 06:40:11;;;;;;;0.10;0.10;;;19.20;88.90;;;;;;6274734;22;19999;-81
2021/06/03 06:42:37;;;;;;;0.00;0.00;;;19.30;89.20;;;;;;6273792;22;20000;-82
2021/06/03 06:45:05;;;;;;;0.10;0.10;;;19.30;89.30;;;;;;6274625;22;20335;-82
2021/06/03 06:47:31;;;;;;;0.10;0.10;;;19.40;84.00;;;;;;6272291;22;20004;-82
2021/06/03 06:49:57;;;;;;;0.10;0.10;;;19.40;84.90;;;;;;6272547;22;20430;-82
2021/06/03 06:52:23;;;;;;;0.10;0.10;;;19.50;84.60;;;;;;6273560;22;20035;-83
2021/06/03 06:54:49;;;;;;;0.10;0.10;;;19.50;84.50;;;;;;6272102;22;20018;-83
2021/06/03 06:57:15;;;;;;;0.10;0.10;;;19.50;85.80;;;;;;6272519;22;20004;-83
2021/06/03 06:59:41;;;;;;;0.63;0.63;;;19.60;86.20;;;;;;6274448;22;20003;-84
2021/06/03 07:02:07;;;;;;;0.05;0.05;;;19.70;77.60;;;;;;6274038;22;20010;-82
2021/06/03 07:04:33;;;;;;;0.10;0.10;;;19.80;76.00;;;;;;6274423;22;19999;-82
2021/06/03 07:06:59;;;;;;;0.10;0.10;;;19.80;75.20;;;;;;6274066;22;20304;-83
2021/06/03 07:09:24;;;;;;;0.13;0.13;;;19.90;76.20;;;;;;6271701;22;20077;-83
2021/06/03 07:11:50;;;;;;;0.38;0.38;;;20.00;82.50;;;;;;6273918;22;20401;-83
2021/06/03 07:14:16;;;;;;;0.20;0.20;;;20.20;83.90;;;;;;6272504;22;20003;-84
2021/06/03 07:16:42;;;;;;;0.88;0.35;;;20.40;80.40;;;;;;6272958;22;19995;-83
2021/06/03 07:19:07;;;;;;;0.55;0.32;;;20.40;77.20;;;;;;6274269;22;20423;-83
2021/06/03 07:21:33;;;;;;;0.10;0.10;;;20.40;72.90;;;;;;6270130;22;20000;-82
2021/06/03 07:23:59;;;;;;;0.22;0.22;;;20.50;78.50;;;;;;6270597;22;20031;-83
2021/06/03 07:26:25;;;;;;;0.30;0.30;;;20.60;79.20;;;;;;6273882;22;20003;-82
2021/06/03 07:28:53;;;;;;;0.10;0.10;;;20.70;79.20;;;;;;6268683;22;20415;-82
2021/06/03 07:31:19;;;;;;;0.10;0.10;;;20.70;83.00;;;;;;6271793;22;20016;-82
2021/06/03 07:33:45;;;;;;;0.10;0.10;;;20.70;83.10;;;;;;6273905;22;20045;-82
2021/06/03 07:36:11;;;;;;;0.10;0.10;;;20.80;78.90;;;;;;6272465;22;20458;-81
2021/06/03 07:38:37;;;;;;;2.10;0.55;;;20.90;80.40;;;;;;6272484;22;19992;-82
2021/06/03 07:41:04;;;;;;;0.32;0.32;;;20.90;78.20;;;;;;6274215;22;20000;-82
2021/06/03 07:43:31;;;;;;;0.63;0.63;;;20.90;77.30;;;;;;6271707;22;20008;-82
2021/06/03 07:45:57;;;;;;;4.28;1.90;;;21.10;74.00;;;;;;6274227;22;20011;-82
2021/06/03 07:48:23;;;;;;;0.32;0.32;;;21.10;76.00;;;;;;6271601;22;20027;-83
2021/06/03 07:50:49;;;;;;;0.10;0.10;;;21.20;81.10;;;;;;6272382;22;20018;-80
2021/06/03 07:53:15;;;;;;;0.40;0.40;;;21.10;74.70;;;;;;6273792;22;20009;-81
2021/06/03 07:55:41;;;;;;;1.35;0.65;;;21.20;79.30;;;;;;6276131;22;20000;-82
2021/06/03 07:58:10;;;;;;;56.47;5.07;;;21.00;78.20;;;;;;6270909;22;20011;-83
2021/06/03 08:00:36;;;;;;;0.57;0.35;;;20.90;75.90;;;;;;6273595;22;20000;-82
2021/06/03 08:03:05;;;;;;;0.40;0.40;;;20.90;76.50;;;;;;6275003;22;19992;-82
2021/06/03 08:05:31;;;;;;;0.20;0.20;;;20.90;75.30;;;;;;6274316;22;20510;-82
2021/06/03 08:07:57;;;;;;;0.52;0.52;;;20.80;74.90;;;;;;6273714;22;20025;-82
2021/06/03 08:10:39;;;;;;;2.22;1.95;;;20.90;74.10;;;;;;6274474;22;20021;-81
2021/06/03 08:13:08;;;;;;;4.53;1.50;;;20.90;74.40;;;;;;6273733;22;20019;-80
2021/06/03 08:15:34;;;;;;;0.30;0.30;;;20.80;71.80;;;;;;6275892;22;19996;-81
2021/06/03 08:18:00;;;;;;;1.13;1.10;;;20.80;72.60;;;;;;6272836;22;20011;-81
2021/06/03 08:20:37;;;;;;;2.13;1.55;;;20.90;70.60;;;;;;6274539;22;20003;-82
2021/06/03 08:23:05;;;;;;;4.70;1.40;;;20.90;67.50;;;;;;6273978;22;20015;-84
2021/06/03 08:25:32;;;;;;;1.08;0.65;;;20.90;66.00;;;;;;6275697;22;20004;-82
2021/06/03 08:27:57;;;;;;;0.20;0.20;;;21.00;65.60;;;;;;6273705;22;20004;-83
2021/06/03 08:30:23;;;;;;;0.10;0.10;;;21.20;68.20;;;;;;6274621;22;20087;-82
2021/06/03 08:32:51;;;;;;;1.05;0.95;;;21.20;69.40;;;;;;6271042;22;19999;-83
2021/06/03 08:35:19;;;;;;;0.73;0.52;;;21.30;66.70;;;;;;6273962;22;20068;-82
2021/06/03 08:37:48;;;;;;;0.88;0.88;;;21.30;65.70;;;;;;6275226;22;20000;-84
2021/06/03 08:40:17;;;;;;;2.72;0.90;;;21.40;65.40;;;;;;6274538;22;20028;-83
2021/06/03 08:42:43;;;;;;;0.45;0.45;;;21.50;64.30;;;;;;6272900;22;20328;-83
2021/06/03 08:45:11;;;;;;;1.33;1.23;;;21.50;66.20;;;;;;6275882;22;20058;-83
2021/06/03 08:47:38;;;;;;;1.05;0.55;;;21.60;63.10;;;;;;6275221;22;20028;-82
2021/06/03 08:50:05;;;;;;;0.15;0.15;;;21.60;61.70;;;;;;6273509;22;20391;-83
2021/06/03 08:52:30;;;;;;;1.13;0.43;;;21.70;63.20;;;;;;6275292;22;20079;-84
2021/06/03 08:54:58;;;;;;;1.95;0.93;;;21.80;57.80;;;;;;6275637;22;20024;-82
2021/06/03 08:57:24;;;;;;;0.32;0.32;;;21.90;59.20;;;;;;6274953;22;20423;-82
2021/06/03 08:59:51;;;;;;;0.73;0.73;;;21.90;57.90;;;;;;6275234;22;20003;-82
2021/06/03 09:02:18;;;;;;;2.17;1.00;;;22.00;58.30;;;;;;6275065;22;20008;-82
2021/06/03 09:04:43;;;;;;;0.60;0.60;;;21.90;58.70;;;;;;6268963;22;20008;-83
2021/06/03 09:07:30;;;;;;;3.00;0.70;;;22.10;60.10;;;;;;6274745;22;20000;-83
2021/06/03 09:09:57;;;;;;;1.23;0.40;;;22.10;55.20;;;;;;6274910;22;20004;-84
2021/06/03 09:12:35;;;;;;;0.70;0.57;;;22.00;60.10;;;;;;6273279;22;20365;-84
2021/06/03 09:15:16;;;;;;;0.25;0.25;;;22.10;57.90;;;;;;6271067;22;20026;-83
2021/06/03 09:17:48;;;;;;;0.52;0.50;;;22.10;57.10;;;;;;6275489;22;20004;-84
2021/06/03 09:20:14;;;;;;;0.20;0.20;;;22.20;57.80;;;;;;6274516;22;20002;-85
2021/06/03 09:22:42;;;;;;;0.10;0.10;;;22.20;58.80;;;;;;6271539;22;20094;-85
2021/06/03 09:25:28;;;;;;;0.90;0.57;;;22.30;62.20;;;;;;6274261;22;20023;-85
2021/06/03 09:27:54;;;;;;;0.55;0.55;;;22.30;59.00;;;;;;6252511;22;20034;-84
2021/06/03 09:30:20;;;;;;;0.55;0.55;;;22.40;60.30;;;;;;6275332;22;20011;-83
2021/06/03 09:32:53;;;;;;;2.22;0.88;;;22.40;60.80;;;;;;6275197;22;20011;-83
2021/06/03 09:35:19;;;;;;;3.03;1.48;;;22.30;59.00;;;;;;6275545;22;20449;-83
2021/06/03 09:37:45;;;;;;;0.40;0.40;;;22.20;60.20;;;;;;6273363;22;20007;-84
2021/06/03 09:40:21;;;;;;;0.25;0.25;;;22.30;61.20;;;;;;6274084;22;20694;-84
2021/06/03 09:43:10;;;;;;;0.20;0.20;;;22.30;62.70;;;;;;6274924;22;20015;-83
2021/06/03 09:46:03;;;;;;;1.33;1.00;;;22.40;62.60;;;;;;6275522;22;19996;-83
2021/06/03 09:48:47;;;;;;;1.10;1.00;;;22.50;61.30;;;;;;6274613;22;20004;-84
2021/06/03 09:51:20;;;;;;;0.10;0.10;;;22.40;60.10;;;;;;6273718;22;20016;-84
2021/06/03 09:53:54;;;;;;;2.13;0.80;;;22.50;61.30;;;;;;6270588;22;20004;-84
2021/06/03 09:56:21;;;;;;;0.35;0.35;;;22.40;61.30;;;;;;6272836;22;20057;-84
2021/06/03 09:58:47;;;;;;;0.55;0.55;;;22.30;59.70;;;;;;6270793;22;20086;-84
2021/06/03 10:01:13;;;;;;;1.07;0.70;;;22.30;60.50;;;;;;6273178;22;19988;-85
2021/06/03 10:03:52;;;;;;;3.55;1.33;;;22.20;60.70;;;;;;6272663;22;20234;-82
2021/06/03 10:06:18;;;;;;;0.98;0.50;;;22.00;61.30;;;;;;6273800;22;20052;-83
2021/06/03 10:08:48;;;;;;;2.35;1.38;;;22.00;62.20;;;;;;6272507;22;20058;-84
2021/06/03 10:11:46;;;;;;;1.58;0.82;;;22.20;66.50;;;;;;6274719;22;20100;-85
2021/06/03 10:14:17;;;;;;;0.43;0.43;;;22.30;66.10;;;;;;6274415;22;20331;-85
2021/06/03 10:16:43;;;;;;;0.85;0.85;;;22.50;67.60;;;;;;6273089;22;20059;-84
2021/06/03 10:19:28;;;;;;;0.20;0.20;;;22.60;63.80;;;;;;6272934;22;20007;-86
2021/06/03 10:22:13;;;;;;;1.70;1.02;;;22.70;67.90;;;;;;6272857;22;20007;-84
2021/06/03 10:24:56;;;;;;;1.30;1.20;;;22.70;64.70;;;;;;6273068;22;20097;-84
2021/06/03 10:27:24;;;;;;;1.83;0.68;;;22.60;65.00;;;;;;6272674;22;19999;-84
2021/06/03 10:29:52;;;;;;;1.00;0.57;;;22.60;65.40;;;;;;6274617;22;20015;-84
2021/06/03 10:32:20;;;;;;;0.25;0.25;;;22.80;66.00;;;;;;6273803;22;20012;-87
2021/06/03 10:34:46;;;;;;;1.13;0.60;;;22.80;65.80;;;;;;6274321;22;20003;-84
2021/06/03 10:37:14;;;;;;;2.67;0.80;;;22.70;61.90;;;;;;6274289;22;19999;-85
2021/06/03 10:39:44;;;;;;;3.15;1.90;;;22.60;61.70;;;;;;6274719;22;19992;-89
2021/06/03 10:42:14;;;;;;;3.47;0.98;;;22.30;64.30;;;;;;6272065;22;20086;-85
2021/06/03 10:44:43;;;;;;;2.45;1.45;;;22.20;65.90;;;;;;6274284;22;19999;-85
2021/06/03 10:47:11;;;;;;;1.15;1.05;;;22.20;64.10;;;;;;6272297;22;20085;-83
2021/06/03 10:49:38;;;;;;;0.95;0.68;;;22.20;61.70;;;;;;6272634;22;20029;-84
2021/06/03 10:52:09;;;;;;;4.00;1.20;;;22.20;58.70;;;;;;6272350;22;20061;-86
2021/06/03 10:54:42;;;;;;;2.20;1.13;;;22.30;60.20;;;;;;6274337;22;20027;-82
2021/06/03 10:57:09;;;;;;;0.95;0.75;;;22.30;59.60;;;;;;6272432;22;20450;-85
2021/06/03 10:59:37;;;;;;;0.38;0.38;;;22.30;58.70;;;;;;6274171;22;20019;-84
2021/06/03 11:02:04;;;;;;;2.00;0.93;;;22.30;56.50;;;;;;6272371;22;20415;-83
2021/06/03 11:04:32;;;;;;;1.65;0.93;;;22.40;56.70;;;;;;6272297;22;20426;-84
2021/06/03 11:06:58;;;;;;;1.60;1.00;;;22.50;54.70;;;;;;6274117;22;20066;-85
2021/06/03 11:09:27;;;;;;;1.38;0.77;;;22.50;51.70;;;;;;6274045;22;20008;-83
2021/06/03 11:12:06;;;;;;;1.42;0.80;;;22.50;55.70;;;;;;6273908;22;20338;-83
2021/06/03 11:14:32;;;;;;;0.35;0.35;;;22.50;52.20;;;;;;6272326;22;20014;-83
2021/06/03 11:16:59;;;;;;;0.40;0.40;;;22.60;54.40;;;;;;6274031;22;20024;-83
2021/06/03 11:19:26;;;;;;;2.35;0.55;;;22.70;52.40;;;;;;6274025;22;20434;-84
2021/06/03 11:21:53;;;;;;;;;;;22.90;54.70;;;;;;6274564;22;20011;-83
2021/06/03 11:24:27;;;;;;;0.50;0.50;;;23.00;51.80;;;;;;6274301;22;20203;-83
2021/06/03 11:27:00;;;;;;;0.40;0.40;;;22.90;50.90;;;;;;6274013;22;20030;-86
2021/06/03 11:29:50;;;;;;;0.77;0.40;;;22.90;53.70;;;;;;6273430;22;20050;-84
2021/06/03 11:32:35;;;;;;;0.17;0.17;;;23.10;54.80;;;;;;6260128;22;20490;-83
2021/06/03 11:35:05;;;;;;;1.38;0.68;;;23.30;54.70;;;;;;6274151;22;20022;-84
2021/06/03 11:37:36;;;;;;;0.10;0.10;;;23.40;52.80;;;;;;6273181;22;20071;-84
2021/06/03 11:40:05;;;;;;;0.30;0.30;;;23.40;51.20;;;;;;6273958;22;20003;-85
2021/06/03 11:42:40;;;;;;;0.57;0.50;;;23.50;52.20;;;;;;6273433;22;20446;-82
2021/06/03 11:45:12;;;;;;;0.75;0.60;;;23.20;54.00;;;;;;6273990;22;20685;-86
2021/06/03 11:47:37;;;;;;;4.88;0.90;;;23.40;49.40;;;;;;6273550;22;20003;-84
2021/06/03 11:50:12;;;;;;;0.65;0.20;;;23.30;49.20;;;;;;6274042;22;20011;-82
2021/06/03 11:52:38;;;;;;;1.50;0.68;;;23.30;53.50;;;;;;6273733;22;20011;-84
2021/06/03 11:55:07;;;;;;;0.70;0.70;;;23.30;53.50;;;;;;6272477;22;19995;-83
2021/06/03 11:57:36;;;;;;;0.30;0.30;;;23.20;55.10;;;;;;6271818;22;20389;-86
2021/06/03 12:00:04;;;;;;;3.63;0.70;;;23.20;54.90;;;;;;6272431;22;19999;-85
2021/06/03 12:02:33;;;;;;;0.90;0.90;;;23.20;53.40;;;;;;6273181;22;20011;-85
2021/06/03 12:05:12;;;;;;;2.10;1.50;;;25.10;51.40;;;;;;6270913;22;20058;-85
2021/06/03 12:07:43;;;;;;;1.45;1.05;;;28.60;44.00;;;;;;6272894;22;20000;-83
2021/06/03 12:10:11;;;;;;;0.52;0.52;;;29.80;41.40;;;;;;6273091;22;20011;-85
2021/06/03 12:12:37;;;;;;;0.20;0.20;;;31.80;39.20;;;;;;6272262;22;20011;-84
2021/06/03 12:15:24;;;;;;;1.67;0.90;;;32.70;36.00;;;;;;6270420;22;20000;-83
2021/06/03 12:17:58;;;;;;;0.52;0.52;;;33.80;33.90;;;;;;6270811;22;20091;-84
2021/06/03 12:20:26;;;;;;;0.60;0.60;;;33.40;33.10;;;;;;6273351;22;19992;-86
2021/06/03 12:22:53;;;;;;;0.25;0.25;;;34.20;33.30;;;;;;6273070;22;20328;-84
2021/06/03 12:25:19;;;;;;;1.10;0.90;;;35.10;33.30;;;;;;6273230;22;20028;-84
2021/06/03 12:27:47;;;;;;;0.28;0.28;;;36.20;30.30;;;;;;6272927;22;20030;-84
2021/06/03 12:30:26;;;;;;;2.17;0.40;;;37.90;29.10;;;;;;6273478;22;20045;-87
2021/06/03 12:33:23;;;;;;;0.35;0.35;;;39.60;27.30;;;;;;6271719;22;20498;-86
2021/06/03 12:35:55;;;;;;;0.68;0.68;;;40.90;24.00;;;;;;6274032;22;20030;-89
2021/06/03 12:38:41;;;;;;;1.38;0.70;;;38.80;25.80;;;;;;6273309;22;20010;-84
2021/06/03 12:41:10;;;;;;;0.70;0.70;;;37.80;26.50;;;;;;6273680;22;20000;-86
2021/06/03 12:43:43;;;;;;;0.70;0.70;;;37.10;25.90;;;;;;6275128;22;20003;-85
2021/06/03 12:46:09;;;;;;;0.77;0.65;;;37.90;25.80;;;;;;6275620;22;19996;-85
2021/06/03 12:48:35;;;;;;;;;;;38.10;26.30;;;;;;6275345;22;19996;-84
2021/06/03 12:51:06;;;;;;;3.55;0.45;;;37.70;26.40;;;;;;6275803;22;19918;-84
2021/06/03 12:53:31;;;;;;;3.72;1.70;;;38.60;27.00;;;;;;6275165;22;19999;-84
2021/06/03 12:55:57;;;;;;;0.30;0.30;;;36.80;26.10;;;;;;6273900;22;20345;-85
2021/06/03 12:58:25;;;;;;;0.30;0.30;;;38.10;29.10;;;;;;6270085;22;20003;-85